Time;durP1;ratioP1;P1;durP2;ratioP2;P2;SDS_P1;SDS_P2;PMS_P1;PMS_P2;Temp;Humidity;BMP_temperature;BMP_pressure;BME280_temperature;BME280_humidity;BME280_pressure;Samples;Min_cycle;Max_cycle;Signal;HPM_P1;HPM_P2
2023/11/04 00:00:40;;;;;;;1.42;1.00;;;;;;;;;;5038654;28;20225;-80
2023/11/04 00:03:06;;;;;;;2.60;1.00;;;;;;;;;;5037476;28;20189;-80
2023/11/04 00:05:32;;;;;;;1.67;1.13;;;;;;;;;;5037990;28;20504;-80
2023/11/04 00:07:58;;;;;;;1.80;1.20;;;;;;;;;;5038919;28;20400;-81
2023/11/04 00:10:24;;;;;;;2.10;1.55;;;;;;;;;;5037789;28;21049;-81
2023/11/04 00:12:50;;;;;;;1.33;1.20;;;;;;;;;;5021720;28;20190;-80
2023/11/04 00:15:16;;;;;;;2.08;1.00;;;;;;;;;;5037075;28;20458;-80
2023/11/04 00:17:44;;;;;;;1.58;0.70;;;;;;;;;;5037910;28;20196;-80
2023/11/04 00:20:10;;;;;;;2.13;1.00;;;;;;;;;;5037251;28;20178;-80
2023/11/04 00:22:36;;;;;;;1.13;0.80;;;;;;;;;;5040894;28;20269;-81
2023/11/04 00:25:02;;;;;;;1.33;0.90;;;;;;;;;;5037513;28;20193;-81
2023/11/04 00:27:28;;;;;;;0.90;0.70;;;;;;;;;;5038271;28;20439;-79
2023/11/04 00:29:54;;;;;;;0.70;0.50;;;;;;;;;;5036644;28;20597;-83
2023/11/04 00:32:22;;;;;;;1.10;0.67;;;;;;;;;;5037704;28;20409;-80
2023/11/04 00:34:48;;;;;;;0.90;0.70;;;;;;;;;;5036831;28;20420;-80
2023/11/04 00:37:14;;;;;;;1.17;0.80;;;;;;;;;;5036613;28;20749;-81
2023/11/04 00:39:39;;;;;;;1.00;0.60;;;;;;;;;;5037854;28;20454;-80
2023/11/04 00:42:06;;;;;;;1.00;0.70;;;;;;;;;;5036708;28;20488;-81
2023/11/04 00:44:32;;;;;;;1.10;0.70;;;;;;;;;;5036403;28;20418;-80
2023/11/04 00:46:58;;;;;;;0.80;0.70;;;;;;;;;;5036610;28;20610;-81
2023/11/04 00:49:24;;;;;;;0.93;0.55;;;;;;;;;;5037129;28;20537;-80
2023/11/04 00:51:50;;;;;;;0.85;0.60;;;;;;;;;;5037046;28;20174;-80
2023/11/04 00:54:16;;;;;;;0.93;0.60;;;;;;;;;;5036972;28;20182;-80
2023/11/04 00:56:41;;;;;;;1.80;0.83;;;;;;;;;;5038444;28;20412;-80
2023/11/04 00:59:08;;;;;;;0.90;0.60;;;;;;;;;;5036457;28;20985;-81
2023/11/04 01:01:34;;;;;;;0.85;0.70;;;;;;;;;;5019784;28;20827;-81
2023/11/04 01:04:00;;;;;;;0.80;0.60;;;;;;;;;;5036695;28;20254;-80
2023/11/04 01:06:26;;;;;;;0.70;0.50;;;;;;;;;;5020499;28;20178;-80
2023/11/04 01:08:52;;;;;;;1.17;0.60;;;;;;;;;;5019823;28;20206;-80
2023/11/04 01:11:18;;;;;;;1.00;0.60;;;;;;;;;;5037732;28;20170;-80
2023/11/04 01:13:44;;;;;;;1.25;0.70;;;;;;;;;;5036616;28;20181;-80
2023/11/04 01:16:11;;;;;;;1.00;0.70;;;;;;;;;;5019751;28;20640;-80
2023/11/04 01:18:38;;;;;;;1.37;0.70;;;;;;;;;;5019947;28;20221;-80
2023/11/04 01:21:05;;;;;;;0.90;0.70;;;;;;;;;;5037182;28;20416;-81
2023/11/04 01:23:31;;;;;;;0.95;0.60;;;;;;;;;;5036326;28;20638;-80
2023/11/04 01:25:57;;;;;;;1.02;0.80;;;;;;;;;;5038650;28;20644;-81
2023/11/04 01:28:23;;;;;;;1.20;0.80;;;;;;;;;;5041691;28;20211;-80
2023/11/04 01:30:49;;;;;;;2.25;0.80;;;;;;;;;;5041782;28;20300;-80
2023/11/04 01:33:15;;;;;;;1.42;0.90;;;;;;;;;;5055121;28;20181;-81
2023/11/04 01:35:41;;;;;;;1.67;0.70;;;;;;;;;;5036444;28;20332;-80
2023/11/04 01:38:07;;;;;;;1.20;0.90;;;;;;;;;;5037102;28;20407;-80
2023/11/04 01:40:33;;;;;;;1.00;0.63;;;;;;;;;;5019382;28;20425;-80
2023/11/04 01:42:59;;;;;;;0.80;0.63;;;;;;;;;;5034923;28;20881;-81
2023/11/04 01:45:25;;;;;;;0.70;0.50;;;;;;;;;;5035708;28;20425;-80
2023/11/04 01:47:51;;;;;;;1.00;0.70;;;;;;;;;;5037110;28;20431;-80
2023/11/04 01:50:17;;;;;;;0.90;0.60;;;;;;;;;;5019201;28;20471;-80
2023/11/04 01:52:44;;;;;;;1.15;0.70;;;;;;;;;;5036054;28;20421;-80
2023/11/04 01:55:10;;;;;;;1.00;0.70;;;;;;;;;;5053663;28;20245;-80
2023/11/04 01:57:37;;;;;;;1.05;0.60;;;;;;;;;;5037088;28;20175;-80
2023/11/04 02:00:04;;;;;;;1.33;0.77;;;;;;;;;;5036384;28;20245;-82
2023/11/04 02:02:32;;;;;;;1.20;0.80;;;;;;;;;;5035677;28;20201;-82
2023/11/04 02:04:59;;;;;;;1.15;0.95;;;;;;;;;;5049903;28;20268;-82
2023/11/04 02:07:25;;;;;;;1.30;0.95;;;;;;;;;;5056478;28;20231;-83
2023/11/04 02:09:51;;;;;;;0.83;0.60;;;;;;;;;;5055320;28;20201;-82
2023/11/04 02:12:18;;;;;;;2.45;0.80;;;;;;;;;;5056643;28;20416;-82
2023/11/04 02:14:53;;;;;;;1.33;0.90;;;;;;;;;;5056198;28;20665;-79
2023/11/04 02:17:19;;;;;;;0.80;0.60;;;;;;;;;;5056179;28;20173;-81
2023/11/04 02:19:46;;;;;;;1.08;0.68;;;;;;;;;;5056866;28;20197;-82
2023/11/04 02:22:12;;;;;;;1.23;0.70;;;;;;;;;;5055123;28;20185;-83
2023/11/04 02:24:38;;;;;;;1.10;0.80;;;;;;;;;;5055293;28;20268;-82
2023/11/04 02:27:04;;;;;;;1.03;0.83;;;;;;;;;;5049563;28;20209;-83
2023/11/04 02:29:30;;;;;;;1.27;0.75;;;;;;;;;;5055592;28;20482;-83
2023/11/04 02:31:56;;;;;;;1.08;0.80;;;;;;;;;;5055057;28;20184;-82
2023/11/04 02:34:22;;;;;;;1.83;1.03;;;;;;;;;;5037823;28;20192;-82
2023/11/04 02:36:48;;;;;;;2.38;0.80;;;;;;;;;;5048798;28;20416;-83
2023/11/04 02:39:14;;;;;;;0.70;0.50;;;;;;;;;;5034778;28;20181;-83
2023/11/04 02:41:40;;;;;;;1.10;0.90;;;;;;;;;;5035061;28;20774;-80
2023/11/04 02:44:06;;;;;;;1.77;0.70;;;;;;;;;;5034774;28;20176;-80
2023/11/04 02:46:32;;;;;;;1.00;0.85;;;;;;;;;;5018875;28;20413;-79
2023/11/04 02:48:58;;;;;;;1.30;0.63;;;;;;;;;;5034710;28;20573;-80
2023/11/04 02:51:24;;;;;;;2.03;0.90;;;;;;;;;;5018575;28;20785;-80
2023/11/04 02:53:50;;;;;;;2.63;0.70;;;;;;;;;;5036605;28;20500;-79
2023/11/04 02:56:16;;;;;;;2.13;0.80;;;;;;;;;;5036138;28;20407;-82
2023/11/04 02:58:42;;;;;;;0.90;0.70;;;;;;;;;;5035161;28;20425;-82
2023/11/04 03:01:08;;;;;;;1.20;0.93;;;;;;;;;;5017879;28;20238;-83
2023/11/04 03:03:34;;;;;;;0.80;0.60;;;;;;;;;;5036405;28;20585;-83
2023/11/04 03:06:00;;;;;;;0.93;0.70;;;;;;;;;;5034768;28;20174;-82
2023/11/04 03:08:26;;;;;;;1.90;0.63;;;;;;;;;;5017869;28;20939;-80
2023/11/04 03:10:52;;;;;;;1.27;0.73;;;;;;;;;;5034993;28;20227;-80
2023/11/04 03:13:19;;;;;;;0.70;0.60;;;;;;;;;;5039445;28;20409;-81
2023/11/04 03:15:45;;;;;;;1.13;0.90;;;;;;;;;;5022311;28;20197;-80
2023/11/04 03:18:13;;;;;;;0.90;0.60;;;;;;;;;;5038902;28;20227;-80
2023/11/04 03:20:39;;;;;;;5.10;0.70;;;;;;;;;;5021977;28;20185;-79
2023/11/04 03:23:05;;;;;;;1.87;0.73;;;;;;;;;;5039759;28;20170;-79
2023/11/04 03:25:32;;;;;;;0.90;0.67;;;;;;;;;;5022511;28;20420;-80
2023/11/04 03:27:58;;;;;;;1.23;0.85;;;;;;;;;;5038512;28;20499;-80
2023/11/04 03:30:24;;;;;;;1.20;0.80;;;;;;;;;;5038558;28;20264;-79
2023/11/04 03:32:50;;;;;;;1.10;0.70;;;;;;;;;;5022531;28;20423;-80
2023/11/04 03:35:16;;;;;;;1.05;0.70;;;;;;;;;;5039644;28;20179;-80
2023/11/04 03:37:42;;;;;;;0.97;0.80;;;;;;;;;;5040032;28;20224;-80
2023/11/04 03:40:09;;;;;;;2.33;0.80;;;;;;;;;;5039563;28;20415;-80
2023/11/04 03:42:36;;;;;;;1.00;0.82;;;;;;;;;;5038823;28;20423;-80
2023/11/04 03:45:03;;;;;;;1.85;0.80;;;;;;;;;;5022305;28;20573;-80
2023/11/04 03:47:29;;;;;;;0.90;0.80;;;;;;;;;;5039588;28;20208;-80
2023/11/04 03:49:55;;;;;;;1.67;1.00;;;;;;;;;;5039990;28;20193;-80
2023/11/04 03:52:21;;;;;;;0.90;0.60;;;;;;;;;;5037547;28;20511;-80
2023/11/04 03:54:47;;;;;;;0.93;0.70;;;;;;;;;;5021867;28;20900;-80
2023/11/04 03:57:13;;;;;;;1.47;1.00;;;;;;;;;;5038392;28;20463;-79
2023/11/04 03:59:39;;;;;;;1.97;0.70;;;;;;;;;;5036509;28;20456;-80
2023/11/04 04:02:07;;;;;;;1.20;0.70;;;;;;;;;;5038122;28;20483;-80
2023/11/04 04:04:33;;;;;;;1.10;0.85;;;;;;;;;;5021760;28;20459;-80
2023/11/04 04:07:00;;;;;;;1.40;0.90;;;;;;;;;;5037609;28;20233;-79
2023/11/04 04:09:26;;;;;;;1.50;0.73;;;;;;;;;;5037694;28;20275;-80
2023/11/04 04:11:52;;;;;;;3.73;0.70;;;;;;;;;;5021396;28;20265;-80
2023/11/04 04:14:18;;;;;;;1.20;0.80;;;;;;;;;;5038905;28;20750;-80
2023/11/04 04:16:45;;;;;;;1.35;0.80;;;;;;;;;;5037456;28;20417;-80
2023/11/04 04:19:11;;;;;;;2.83;0.90;;;;;;;;;;5037567;28;20533;-80
2023/11/04 04:21:38;;;;;;;0.90;0.70;;;;;;;;;;5038437;28;20185;-80
2023/11/04 04:24:04;;;;;;;0.90;0.70;;;;;;;;;;5020911;28;20428;-80
2023/11/04 04:26:30;;;;;;;3.15;1.38;;;;;;;;;;5038887;28;20185;-80
2023/11/04 04:28:57;;;;;;;1.53;0.90;;;;;;;;;;5037381;28;20218;-80
2023/11/04 04:31:24;;;;;;;2.05;0.73;;;;;;;;;;5032288;28;20538;-80
2023/11/04 04:33:50;;;;;;;2.45;0.90;;;;;;;;;;5037144;28;20177;-79
2023/11/04 04:36:16;;;;;;;1.55;0.80;;;;;;;;;;5037035;28;20182;-80
2023/11/04 04:38:42;;;;;;;1.07;0.73;;;;;;;;;;5036718;28;20253;-80
2023/11/04 04:41:08;;;;;;;1.03;0.80;;;;;;;;;;5037287;28;20397;-80
2023/11/04 04:43:36;;;;;;;1.48;1.17;;;;;;;;;;5020740;28;20417;-80
2023/11/04 04:46:02;;;;;;;1.95;0.80;;;;;;;;;;5036948;28;20175;-80
2023/11/04 04:48:29;;;;;;;0.80;0.73;;;;;;;;;;5020194;28;20272;-80
2023/11/04 04:50:55;;;;;;;1.17;0.70;;;;;;;;;;5046823;28;20194;-80
2023/11/04 04:53:21;;;;;;;1.17;0.90;;;;;;;;;;5044989;28;20219;-80
2023/11/04 04:55:47;;;;;;;0.90;0.70;;;;;;;;;;5038523;28;20201;-81
2023/11/04 04:58:13;;;;;;;1.95;0.80;;;;;;;;;;5036792;28;20252;-80
2023/11/04 05:00:39;;;;;;;1.47;0.90;;;;;;;;;;5036789;28;20229;-80
2023/11/04 05:03:05;;;;;;;2.15;0.80;;;;;;;;;;5020598;28;20417;-80
2023/11/04 05:05:35;;;;;;;0.82;0.60;;;;;;;;;;5037350;28;20579;-80
2023/11/04 05:08:00;;;;;;;1.27;0.82;;;;;;;;;;5037036;28;20257;-80
2023/11/04 05:10:26;;;;;;;1.00;0.73;;;;;;;;;;5019951;28;20285;-80
2023/11/04 05:12:52;;;;;;;1.30;1.00;;;;;;;;;;5054509;28;20408;-80
2023/11/04 05:15:18;;;;;;;1.00;0.60;;;;;;;;;;5040009;28;20272;-80
2023/11/04 05:17:45;;;;;;;1.20;0.80;;;;;;;;;;5040180;28;20512;-80
2023/11/04 05:20:12;;;;;;;1.75;0.63;;;;;;;;;;5057015;28;20666;-82
2023/11/04 05:22:37;;;;;;;1.60;0.90;;;;;;;;;;5050274;28;20198;-80
2023/11/04 05:25:04;;;;;;;1.30;0.80;;;;;;;;;;5037793;28;20651;-80
2023/11/04 05:27:30;;;;;;;2.03;0.90;;;;;;;;;;5053143;28;20478;-80
2023/11/04 05:29:56;;;;;;;0.90;0.70;;;;;;;;;;5056137;28;20680;-80
2023/11/04 05:32:22;;;;;;;1.10;0.70;;;;;;;;;;5055860;28;20535;-80
2023/11/04 05:34:48;;;;;;;1.00;0.80;;;;;;;;;;5042461;28;20210;-80
2023/11/04 05:37:14;;;;;;;1.88;0.80;;;;;;;;;;5035948;28;20205;-81
2023/11/04 05:39:40;;;;;;;2.60;0.83;;;;;;;;;;5036111;28;20232;-80
2023/11/04 05:42:06;;;;;;;0.90;0.80;;;;;;;;;;5020087;28;20412;-80
2023/11/04 05:44:32;;;;;;;1.10;0.80;;;;;;;;;;5037380;28;20885;-83
2023/11/04 05:46:59;;;;;;;2.30;0.70;;;;;;;;;;5036062;28;20178;-80
2023/11/04 05:49:25;;;;;;;1.40;0.60;;;;;;;;;;5035354;28;20464;-80
2023/11/04 05:51:50;;;;;;;1.35;0.70;;;;;;;;;;5035906;28;20243;-80
2023/11/04 05:54:16;;;;;;;0.80;0.60;;;;;;;;;;5042646;28;20193;-80
2023/11/04 05:56:42;;;;;;;1.90;0.90;;;;;;;;;;5055957;28;20438;-80
2023/11/04 05:59:09;;;;;;;1.10;0.73;;;;;;;;;;5038947;28;20412;-80
2023/11/04 06:01:35;;;;;;;1.10;0.68;;;;;;;;;;5056940;28;20806;-80
2023/11/04 06:04:02;;;;;;;2.40;0.77;;;;;;;;;;5055164;28;20184;-80
2023/11/04 06:06:28;;;;;;;1.20;0.80;;;;;;;;;;5055116;28;20173;-80
2023/11/04 06:08:54;;;;;;;1.10;0.80;;;;;;;;;;5055817;28;20208;-80
2023/11/04 06:11:20;;;;;;;1.17;0.70;;;;;;;;;;5038576;28;20634;-80
2023/11/04 06:13:46;;;;;;;3.43;1.10;;;;;;;;;;5039264;28;20181;-80
2023/11/04 06:16:12;;;;;;;1.02;0.93;;;;;;;;;;5056949;28;20408;-80
2023/11/04 06:18:38;;;;;;;3.13;1.33;;;;;;;;;;5055889;28;20572;-79
2023/11/04 06:21:05;;;;;;;1.10;0.90;;;;;;;;;;5048932;28;20508;-80
2023/11/04 06:23:31;;;;;;;1.50;1.10;;;;;;;;;;5036243;28;20177;-80
2023/11/04 06:25:57;;;;;;;1.25;0.90;;;;;;;;;;5044166;28;20196;-80
2023/11/04 06:28:23;;;;;;;1.60;1.30;;;;;;;;;;5055185;28;20181;-80
2023/11/04 06:30:49;;;;;;;3.23;0.90;;;;;;;;;;5056364;28;20495;-80
2023/11/04 06:33:15;;;;;;;1.20;0.80;;;;;;;;;;5055741;28;20446;-83
2023/11/04 06:35:41;;;;;;;3.53;0.90;;;;;;;;;;5055570;28;20177;-80
2023/11/04 06:38:07;;;;;;;1.40;0.80;;;;;;;;;;5055005;28;20495;-80
2023/11/04 06:40:35;;;;;;;1.10;0.68;;;;;;;;;;5038264;28;20420;-80
2023/11/04 06:43:01;;;;;;;0.80;0.70;;;;;;;;;;5038882;28;20204;-81
2023/11/04 06:45:28;;;;;;;1.42;0.80;;;;;;;;;;5054895;28;20186;-80
2023/11/04 06:47:55;;;;;;;1.67;0.63;;;;;;;;;;5054426;28;20183;-80
2023/11/04 06:50:21;;;;;;;1.45;0.80;;;;;;;;;;5038190;28;20674;-80
2023/11/04 06:52:47;;;;;;;1.25;0.70;;;;;;;;;;5054670;28;20205;-80
2023/11/04 06:55:13;;;;;;;3.88;0.90;;;;;;;;;;5055651;28;20533;-80
2023/11/04 06:57:39;;;;;;;0.80;0.70;;;;;;;;;;5054102;28;20182;-80
2023/11/04 07:00:06;;;;;;;1.20;0.83;;;;;;;;;;5054351;28;20468;-80
2023/11/04 07:02:33;;;;;;;0.82;0.60;;;;;;;;;;5040036;28;20524;-80
2023/11/04 07:04:59;;;;;;;1.00;0.70;;;;;;;;;;5034289;28;20240;-80
2023/11/04 07:07:25;;;;;;;1.42;0.80;;;;;;;;;;5034534;28;20261;-80
2023/11/04 07:09:51;;;;;;;2.30;0.70;;;;;;;;;;5034711;28;20624;-80
2023/11/04 07:12:18;;;;;;;1.23;0.83;;;;;;;;;;5034153;28;20419;-80
2023/11/04 07:14:45;;;;;;;1.58;1.13;;;;;;;;;;5035344;28;20410;-81
2023/11/04 07:17:11;;;;;;;1.20;0.68;;;;;;;;;;5035334;28;20175;-81
2023/11/04 07:19:37;;;;;;;0.90;0.60;;;;;;;;;;5035105;28;20193;-81
2023/11/04 07:22:05;;;;;;;0.82;0.63;;;;;;;;;;5042851;28;20408;-81
2023/11/04 07:24:34;;;;;;;1.40;0.70;;;;;;;;;;5055231;28;20192;-80
2023/11/04 07:27:00;;;;;;;1.40;0.70;;;;;;;;;;5054401;28;20260;-80
2023/11/04 07:29:27;;;;;;;2.10;0.60;;;;;;;;;;5054847;28;20339;-80
2023/11/04 07:31:53;;;;;;;1.20;0.80;;;;;;;;;;5054675;28;20590;-81
2023/11/04 07:34:19;;;;;;;1.63;0.63;;;;;;;;;;5054187;28;20252;-81
2023/11/04 07:36:45;;;;;;;1.25;0.77;;;;;;;;;;5054161;28;20180;-80
2023/11/04 07:39:11;;;;;;;1.00;0.70;;;;;;;;;;5055726;28;20170;-80
2023/11/04 07:41:40;;;;;;;1.40;0.70;;;;;;;;;;5054886;28;20174;-80
2023/11/04 07:44:06;;;;;;;1.20;0.80;;;;;;;;;;5055277;28;20178;-80
2023/11/04 07:46:33;;;;;;;1.20;0.80;;;;;;;;;;5039547;28;20178;-80
2023/11/04 07:48:59;;;;;;;1.13;0.70;;;;;;;;;;5034252;28;20206;-80
2023/11/04 07:51:25;;;;;;;1.08;0.88;;;;;;;;;;5035322;28;20178;-81
2023/11/04 07:53:51;;;;;;;0.95;0.60;;;;;;;;;;5034042;28;20175;-81
2023/11/04 07:56:17;;;;;;;1.70;0.80;;;;;;;;;;5034138;28;20201;-81
2023/11/04 07:58:43;;;;;;;1.00;0.73;;;;;;;;;;5019751;28;20193;-80
2023/11/04 08:01:09;;;;;;;1.33;0.70;;;;;;;;;;5044295;28;20233;-81
2023/11/04 08:03:35;;;;;;;0.87;0.60;;;;;;;;;;5056969;28;20414;-81
2023/11/04 08:06:01;;;;;;;1.00;0.70;;;;;;;;;;5057061;28;20420;-80
2023/11/04 08:08:27;;;;;;;0.90;0.60;;;;;;;;;;5058406;28;20409;-81
2023/11/04 08:10:53;;;;;;;1.10;0.70;;;;;;;;;;5058512;28;20792;-81
2023/11/04 08:13:22;;;;;;;1.05;0.80;;;;;;;;;;5040600;28;20189;-81
2023/11/04 08:15:48;;;;;;;0.98;0.70;;;;;;;;;;5041348;28;20554;-81
2023/11/04 08:18:14;;;;;;;1.10;0.70;;;;;;;;;;5057343;28;20182;-81
2023/11/04 08:20:40;;;;;;;1.00;0.70;;;;;;;;;;5040301;28;20219;-81
2023/11/04 08:23:06;;;;;;;1.00;0.70;;;;;;;;;;5040534;28;20434;-81
2023/11/04 08:25:32;;;;;;;1.77;0.88;;;;;;;;;;5040177;28;20185;-81
2023/11/04 08:27:58;;;;;;;1.83;0.90;;;;;;;;;;5058257;28;20569;-82
2023/11/04 08:30:24;;;;;;;1.43;0.60;;;;;;;;;;5055879;28;20487;-81
2023/11/04 08:32:50;;;;;;;1.30;0.70;;;;;;;;;;5057976;28;20397;-81
2023/11/04 08:35:16;;;;;;;3.20;0.90;;;;;;;;;;5056414;28;20970;-81
2023/11/04 08:37:42;;;;;;;2.45;0.93;;;;;;;;;;5057375;28;20177;-81
2023/11/04 08:40:08;;;;;;;1.23;0.70;;;;;;;;;;5057268;28;20200;-81
2023/11/04 08:42:34;;;;;;;1.40;0.70;;;;;;;;;;5050295;28;20185;-81
2023/11/04 08:45:00;;;;;;;1.95;0.70;;;;;;;;;;5036505;28;20544;-81
2023/11/04 08:47:26;;;;;;;1.30;0.80;;;;;;;;;;5019645;28;20186;-81
2023/11/04 08:49:52;;;;;;;1.50;0.83;;;;;;;;;;5036159;28;20473;-81
2023/11/04 08:52:18;;;;;;;3.35;0.75;;;;;;;;;;5036640;28;20417;-81
2023/11/04 08:54:44;;;;;;;1.70;0.70;;;;;;;;;;5037383;28;20225;-81
2023/11/04 08:57:10;;;;;;;0.98;0.70;;;;;;;;;;5036499;28;20453;-81
2023/11/04 08:59:36;;;;;;;2.80;0.80;;;;;;;;;;5037419;28;20201;-80
2023/11/04 09:02:02;;;;;;;0.80;0.60;;;;;;;;;;5019502;28;20519;-81
2023/11/04 09:04:28;;;;;;;1.17;0.70;;;;;;;;;;5037161;28;20738;-81
2023/11/04 09:06:55;;;;;;;2.37;0.80;;;;;;;;;;5019595;28;20212;-81
2023/11/04 09:09:22;;;;;;;1.95;0.70;;;;;;;;;;5035264;28;20575;-81
2023/11/04 09:11:48;;;;;;;0.90;0.75;;;;;;;;;;5019941;28;20646;-81
2023/11/04 09:14:14;;;;;;;1.25;0.65;;;;;;;;;;5036855;28;20642;-81
2023/11/04 09:16:42;;;;;;;1.40;0.67;;;;;;;;;;5037297;28;20174;-81
2023/11/04 09:19:08;;;;;;;4.00;0.75;;;;;;;;;;5037429;28;20413;-81
2023/11/04 09:21:35;;;;;;;3.85;0.98;;;;;;;;;;5055211;28;20189;-80
2023/11/04 09:24:01;;;;;;;2.67;0.85;;;;;;;;;;5056063;28;20238;-81
2023/11/04 09:26:27;;;;;;;1.02;0.70;;;;;;;;;;5056653;28;20177;-80
2023/11/04 09:28:53;;;;;;;1.50;0.80;;;;;;;;;;5055244;28;20185;-81
2023/11/04 09:31:19;;;;;;;2.53;1.27;;;;;;;;;;5055675;28;20450;-81
2023/11/04 09:33:45;;;;;;;3.40;1.33;;;;;;;;;;5030874;28;20190;-80
2023/11/04 09:36:11;;;;;;;1.70;1.00;;;;;;;;;;5035371;28;20424;-81
2023/11/04 09:38:37;;;;;;;1.33;0.90;;;;;;;;;;5034886;28;20421;-81
2023/11/04 09:41:03;;;;;;;2.33;0.90;;;;;;;;;;5051649;28;20194;-81
2023/11/04 09:43:29;;;;;;;1.48;0.95;;;;;;;;;;5019087;28;20423;-81
2023/11/04 09:45:56;;;;;;;1.30;0.85;;;;;;;;;;5040151;28;20189;-81
2023/11/04 09:48:22;;;;;;;2.00;0.97;;;;;;;;;;5054529;28;20178;-81
2023/11/04 09:50:50;;;;;;;2.93;0.87;;;;;;;;;;5055639;28;20456;-81
2023/11/04 09:53:23;;;;;;;2.60;0.90;;;;;;;;;;5056308;28;20930;-81
2023/11/04 09:55:51;;;;;;;1.60;0.90;;;;;;;;;;5056227;28;20248;-84
2023/11/04 09:58:18;;;;;;;3.03;1.20;;;;;;;;;;5056287;28;20408;-81
2023/11/04 10:00:46;;;;;;;2.20;1.03;;;;;;;;;;5054133;28;20521;-84
2023/11/04 10:03:12;;;;;;;1.77;0.80;;;;;;;;;;5056146;28;20891;-84
2023/11/04 10:05:38;;;;;;;1.87;1.00;;;;;;;;;;5056187;28;20408;-84
2023/11/04 10:08:04;;;;;;;1.97;0.90;;;;;;;;;;5055989;28;20400;-81
2023/11/04 10:10:30;;;;;;;3.72;1.25;;;;;;;;;;5055667;28;20455;-81
2023/11/04 10:12:57;;;;;;;4.43;1.05;;;;;;;;;;5054879;28;20196;-83
2023/11/04 10:15:23;;;;;;;2.35;0.85;;;;;;;;;;5054877;28;20624;-82
2023/11/04 10:17:49;;;;;;;4.90;1.25;;;;;;;;;;5054411;28;20376;-82
2023/11/04 10:20:15;;;;;;;4.70;1.60;;;;;;;;;;5054579;28;20644;-82
2023/11/04 10:22:41;;;;;;;4.40;1.10;;;;;;;;;;5054417;28;20280;-81
2023/11/04 10:25:08;;;;;;;1.80;1.05;;;;;;;;;;5056087;28;20166;-82
2023/11/04 10:27:38;;;;;;;3.65;1.45;;;;;;;;;;5055574;28;20173;-81
2023/11/04 10:30:04;;;;;;;3.25;1.27;;;;;;;;;;5054130;28;20205;-81
2023/11/04 10:32:34;;;;;;;6.05;1.17;;;;;;;;;;5054324;28;20181;-82
2023/11/04 10:35:02;;;;;;;2.58;1.40;;;;;;;;;;5055635;28;20170;-81
2023/11/04 10:37:28;;;;;;;7.63;1.75;;;;;;;;;;5054479;28;20189;-82
2023/11/04 10:39:55;;;;;;;3.58;2.10;;;;;;;;;;5037511;28;20223;-81
2023/11/04 10:42:24;;;;;;;4.72;1.15;;;;;;;;;;5054667;28;20652;-82
2023/11/04 10:44:52;;;;;;;6.43;2.58;;;;;;;;;;5055462;28;20177;-81
2023/11/04 10:47:27;;;;;;;13.88;2.17;;;;;;;;;;5054324;28;20542;-81
2023/11/04 10:50:14;;;;;;;7.25;1.65;;;;;;;;;;5055003;28;20191;-82
2023/11/04 10:52:54;;;;;;;1.83;1.10;;;;;;;;;;5055894;28;20161;-81
2023/11/04 10:55:21;;;;;;;4.40;1.53;;;;;;;;;;5054313;28;20177;-81
2023/11/04 10:57:59;;;;;;;2.33;1.45;;;;;;;;;;5052802;28;20489;-81
2023/11/04 11:00:25;;;;;;;2.15;1.35;;;;;;;;;;5027354;28;20245;-92
2023/11/04 11:02:52;;;;;;;3.85;1.00;;;;;;;;;;5032520;28;20183;-92
2023/11/04 11:05:22;;;;;;;1.33;0.80;;;;;;;;;;5031305;28;20179;-90
2023/11/04 11:07:48;;;;;;;2.53;1.10;;;;;;;;;;5031206;28;20171;-88
2023/11/04 11:10:16;;;;;;;5.28;1.05;;;;;;;;;;5041455;28;20198;-81
2023/11/04 11:13:00;;;;;;;5.60;1.08;;;;;;;;;;5034430;28;20186;-80
2023/11/04 11:15:27;;;;;;;5.70;1.30;;;;;;;;;;5036211;28;20185;-80
2023/11/04 11:17:59;;;;;;;4.68;1.40;;;;;;;;;;5034126;28;20269;-81
2023/11/04 11:20:28;;;;;;;2.17;1.30;;;;;;;;;;5034831;28;20189;-82
2023/11/04 11:22:58;;;;;;;4.25;1.05;;;;;;;;;;5043122;28;20182;-82
2023/11/04 11:25:30;;;;;;;4.57;2.15;;;;;;;;;;5053444;28;20173;-84
2023/11/04 11:27:56;;;;;;;2.70;1.65;;;;;;;;;;5033844;28;20701;-84
2023/11/04 11:30:33;;;;;;;2.60;1.30;;;;;;;;;;5034684;28;20360;-84
2023/11/04 11:33:05;;;;;;;2.92;1.38;;;;;;;;;;5034966;28;20499;-85
2023/11/04 11:35:49;;;;;;;2.05;1.45;;;;;;;;;;5037473;28;20250;-86
2023/11/04 11:38:15;;;;;;;3.40;2.28;;;;;;;;;;5036905;28;20189;-85
2023/11/04 11:40:41;;;;;;;3.70;1.50;;;;;;;;;;5037225;28;20182;-87
2023/11/04 11:43:08;;;;;;;1.87;1.03;;;;;;;;;;5020859;28;20417;-86
2023/11/04 11:45:36;;;;;;;5.20;1.90;;;;;;;;;;5035564;28;20429;-86
2023/11/04 11:48:02;;;;;;;3.65;1.17;;;;;;;;;;5038964;28;20224;-86
2023/11/04 11:50:28;;;;;;;3.25;1.30;;;;;;;;;;5038434;28;20198;-86
2023/11/04 11:52:55;;;;;;;2.40;1.40;;;;;;;;;;5036790;28;20708;-87
2023/11/04 11:55:21;;;;;;;4.10;1.35;;;;;;;;;;5036679;28;20423;-86
2023/11/04 11:57:47;;;;;;;2.85;1.35;;;;;;;;;;5036484;28;20170;-86
2023/11/04 12:00:14;;;;;;;5.90;1.43;;;;;;;;;;5036317;28;20263;-87
2023/11/04 12:02:40;;;;;;;2.65;1.10;;;;;;;;;;5035337;28;20424;-85
2023/11/04 12:05:06;;;;;;;6.00;1.63;;;;;;;;;;5018980;28;20186;-85
2023/11/04 12:07:32;;;;;;;6.45;1.30;;;;;;;;;;5036699;28;20178;-86
2023/11/04 12:09:58;;;;;;;1.65;0.90;;;;;;;;;;5019643;28;20210;-85
2023/11/04 12:12:24;;;;;;;3.77;1.07;;;;;;;;;;5020140;28;20193;-85
2023/11/04 12:14:59;;;;;;;4.87;1.40;;;;;;;;;;5036602;28;20420;-85
2023/11/04 12:17:25;;;;;;;4.80;1.08;;;;;;;;;;5037002;28;20416;-85
2023/11/04 12:19:51;;;;;;;2.77;1.30;;;;;;;;;;5036333;28;20206;-85
2023/11/04 12:22:17;;;;;;;1.10;1.00;;;;;;;;;;5036218;28;20408;-85
2023/11/04 12:24:43;;;;;;;3.53;1.23;;;;;;;;;;5035971;28;20182;-86
2023/11/04 12:27:10;;;;;;;2.45;1.10;;;;;;;;;;5033432;28;20184;-84
2023/11/04 12:29:38;;;;;;;5.30;0.80;;;;;;;;;;5035182;28;20213;-84
2023/11/04 12:32:04;;;;;;;2.35;0.90;;;;;;;;;;5025126;28;20277;-84
2023/11/04 12:34:30;;;;;;;4.68;1.38;;;;;;;;;;5049789;28;20260;-84
2023/11/04 12:36:57;;;;;;;2.97;0.80;;;;;;;;;;5056112;28;20210;-84
2023/11/04 12:39:22;;;;;;;1.70;1.10;;;;;;;;;;5044117;28;20413;-84
2023/11/04 12:41:48;;;;;;;1.60;0.90;;;;;;;;;;5035187;28;20174;-83
2023/11/04 12:44:15;;;;;;;3.38;1.00;;;;;;;;;;5037040;28;20419;-83
2023/11/04 12:46:41;;;;;;;3.88;1.05;;;;;;;;;;5045569;28;20183;-82
2023/11/04 12:49:08;;;;;;;1.00;0.90;;;;;;;;;;5055600;28;20197;-82
2023/11/04 12:51:34;;;;;;;1.27;1.00;;;;;;;;;;5057242;28;20453;-85
2023/11/04 12:54:00;;;;;;;2.47;1.05;;;;;;;;;;5056764;28;20173;-86
2023/11/04 12:56:26;;;;;;;5.55;1.25;;;;;;;;;;5055875;28;20170;-86
2023/11/04 12:58:55;;;;;;;0.93;0.82;;;;;;;;;;5045615;28;20526;-87
2023/11/04 13:01:21;;;;;;;1.20;1.10;;;;;;;;;;5036303;28;20245;-86
2023/11/04 13:03:48;;;;;;;1.52;1.05;;;;;;;;;;5034858;28;20178;-86
2023/11/04 13:06:14;;;;;;;1.00;0.90;;;;;;;;;;5019115;28;20174;-87
2023/11/04 13:08:41;;;;;;;3.30;1.30;;;;;;;;;;5034907;28;20178;-87
2023/11/04 13:11:09;;;;;;;1.20;1.02;;;;;;;;;;5035213;28;20218;-87
2023/11/04 13:13:37;;;;;;;2.55;1.20;;;;;;;;;;5035487;28;20351;-88
2023/11/04 13:16:06;;;;;;;2.85;1.23;;;;;;;;;;5036549;28;20575;-87
2023/11/04 13:18:32;;;;;;;1.92;1.20;;;;;;;;;;5034272;28;20253;-87
2023/11/04 13:21:00;;;;;;;0.90;0.80;;;;;;;;;;5020280;28;20190;-88
2023/11/04 13:23:29;;;;;;;0.90;0.73;;;;;;;;;;5035465;28;20170;-89
2023/11/04 13:25:55;;;;;;;1.13;0.73;;;;;;;;;;5036103;28;20277;-88
2023/11/04 13:28:21;;;;;;;1.20;0.90;;;;;;;;;;5034361;28;20710;-88
2023/11/04 13:30:48;;;;;;;0.95;0.85;;;;;;;;;;5033909;28;20222;-87
2023/11/04 13:33:14;;;;;;;0.80;0.60;;;;;;;;;;5034552;28;20205;-85
2023/11/04 13:35:40;;;;;;;1.08;0.82;;;;;;;;;;5035101;28;20186;-87
2023/11/04 13:38:09;;;;;;;1.23;0.80;;;;;;;;;;5033958;28;20189;-85
2023/11/04 13:40:35;;;;;;;1.35;0.85;;;;;;;;;;5051777;28;20195;-86
2023/11/04 13:43:02;;;;;;;1.40;1.00;;;;;;;;;;5016685;28;20177;-85
2023/11/04 13:45:28;;;;;;;2.60;0.90;;;;;;;;;;5029402;28;20412;-86
2023/11/04 13:47:54;;;;;;;1.45;0.90;;;;;;;;;;5016013;28;20159;-86
2023/11/04 13:50:22;;;;;;;1.35;0.68;;;;;;;;;;5016479;28;20293;-86
2023/11/04 13:52:48;;;;;;;2.20;0.70;;;;;;;;;;5030421;28;20231;-86
2023/11/04 13:55:17;;;;;;;1.42;0.85;;;;;;;;;;5041428;28;20573;-84
2023/11/04 13:57:43;;;;;;;1.42;0.68;;;;;;;;;;5041174;28;20201;-87
2023/11/04 14:00:09;;;;;;;0.80;0.55;;;;;;;;;;5033067;28;20245;-88
2023/11/04 14:02:35;;;;;;;1.65;0.82;;;;;;;;;;5034396;28;20216;-84
2023/11/04 14:05:01;;;;;;;1.20;0.80;;;;;;;;;;5035116;28;20172;-84
2023/11/04 14:07:27;;;;;;;1.55;0.80;;;;;;;;;;5033785;28;20173;-85
2023/11/04 14:09:53;;;;;;;4.18;2.20;;;;;;;;;;5033994;28;20621;-83
2023/11/04 14:12:19;;;;;;;1.03;0.70;;;;;;;;;;5035556;28;20205;-86
2023/11/04 14:14:46;;;;;;;1.30;0.90;;;;;;;;;;5033502;28;20450;-84
2023/11/04 14:17:12;;;;;;;1.88;1.13;;;;;;;;;;5035816;28;20872;-84
2023/11/04 14:19:38;;;;;;;1.30;0.83;;;;;;;;;;5036080;28;20254;-85
2023/11/04 14:22:05;;;;;;;4.95;2.45;;;;;;;;;;5034543;28;20409;-86
2023/11/04 14:24:31;;;;;;;3.30;1.80;;;;;;;;;;5035433;28;20508;-84
2023/11/04 14:26:57;;;;;;;2.17;0.90;;;;;;;;;;5034062;28;20174;-85
2023/11/04 14:29:23;;;;;;;1.00;0.70;;;;;;;;;;5032576;28;20863;-84
2023/11/04 14:31:49;;;;;;;0.80;0.50;;;;;;;;;;5033308;28;20425;-84
2023/11/04 14:34:15;;;;;;;1.90;1.27;;;;;;;;;;5034680;28;20521;-86
2023/11/04 14:36:41;;;;;;;1.95;1.13;;;;;;;;;;5050415;28;20492;-84
2023/11/04 14:39:07;;;;;;;1.93;0.90;;;;;;;;;;5034874;28;20665;-84